KRDG

Reading Regional / Carl A Spaatz Field Airport

Reading, Pennsylvania, USA
METAR KRDG 220154Z 00000KT 10SM CLR 21/13 A3013 RMK AO2 SLP207 T02110133
Observed Flight Rules
May-22 @ 01:54 UTC (42 minutes ago) Visual Flight Rules
Visibility Clouds
10 miles
  • Clear skies
Temperatures Readings
Current 21°C / 70°F
Dewpoint 13°C / 55°F
Humidity 60%
Altimeter 30.13" Hg
Pressure 1020.7 hPa
Elevation 109
METAR KRDG 220154Z 00000KT 10SM CLR 21/13 A3013 RMK AO2 SLP207 T02110133
Observed Flight Rules
May-22 @ 01:54 UTC
(42 minutes ago)
VFR
Clouds
  • Clear skies
Temperature Dewpoint
21°C / 70°F 13°C / 55°F
Humidity Altimeter Pressure
60% 30.13" Hg 1020.7 hPa